createdAt,value
2022-07-27T00:00:47.930Z,5.35
2022-07-27T00:03:14.815Z,1.95
2022-07-27T00:05:41.577Z,4.50
2022-07-27T00:08:08.555Z,1.75
2022-07-27T00:10:36.867Z,1.98
2022-07-27T00:13:05.122Z,2.20
2022-07-27T00:15:33.070Z,2.35
2022-07-27T00:18:01.068Z,2.33
2022-07-27T00:20:32.649Z,1.70
2022-07-27T00:22:59.660Z,5.28
2022-07-27T00:25:29.950Z,3.53
2022-07-27T00:27:59.149Z,2.15
2022-07-27T00:30:26.901Z,3.80
2022-07-27T00:32:53.748Z,3.17
2022-07-27T00:35:20.745Z,1.90
2022-07-27T00:37:47.441Z,2.72
2022-07-27T00:40:16.096Z,1.33
2022-07-27T00:42:42.958Z,3.00
2022-07-27T00:45:10.109Z,3.78
2022-07-27T00:47:36.838Z,3.38
2022-07-27T00:50:04.069Z,1.48
2022-07-27T00:52:31.274Z,2.25
2022-07-27T00:54:59.185Z,1.65
2022-07-27T00:57:27.896Z,2.83
2022-07-27T00:59:54.993Z,4.13
2022-07-27T01:02:23.050Z,3.38
2022-07-27T01:04:50.273Z,2.13
2022-07-27T01:07:22.099Z,2.38
2022-07-27T01:09:59.896Z,3.45
2022-07-27T01:12:31.610Z,1.98
2022-07-27T01:14:59.890Z,1.60
2022-07-27T01:17:30.717Z,2.72
2022-07-27T01:19:58.427Z,2.42
2022-07-27T01:22:25.163Z,1.77
2022-07-27T01:24:51.903Z,1.40
2022-07-27T01:27:18.616Z,2.75
2022-07-27T01:29:45.346Z,1.50
2022-07-27T01:32:12.177Z,5.07
2022-07-27T01:34:39.117Z,2.05
2022-07-27T01:37:05.960Z,2.08
2022-07-27T01:39:32.867Z,1.42
2022-07-27T01:42:00.329Z,2.95
2022-07-27T01:44:27.019Z,2.15
2022-07-27T01:46:53.808Z,1.40
2022-07-27T01:49:20.686Z,2.25
2022-07-27T01:51:47.499Z,1.98
2022-07-27T01:54:14.255Z,2.15
2022-07-27T01:56:41.500Z,1.85
2022-07-27T01:59:08.342Z,1.70
2022-07-27T02:01:43.403Z,2.38
2022-07-27T02:04:10.245Z,1.35
2022-07-27T02:06:36.963Z,1.67
2022-07-27T02:09:03.794Z,2.63
2022-07-27T02:11:49.100Z,3.63
2022-07-27T02:14:16.428Z,2.03
2022-07-27T02:16:43.348Z,1.30
2022-07-27T02:19:11.162Z,2.47
2022-07-27T02:21:38.836Z,1.25
2022-07-27T02:24:06.202Z,2.63
2022-07-27T02:26:33.008Z,1.27
2022-07-27T02:28:59.747Z,3.13
2022-07-27T02:31:26.611Z,1.42
2022-07-27T02:33:59.448Z,1.83
2022-07-27T02:36:29.049Z,1.70
2022-07-27T02:38:57.215Z,4.68
2022-07-27T02:41:24.775Z,1.42
2022-07-27T02:43:51.941Z,1.52
2022-07-27T02:46:18.767Z,3.60
2022-07-27T02:48:45.920Z,1.85
2022-07-27T02:51:14.843Z,2.63
2022-07-27T02:53:41.666Z,1.70
2022-07-27T02:56:08.474Z,1.38
2022-07-27T02:58:35.586Z,2.00
2022-07-27T03:01:02.398Z,2.00
2022-07-27T03:03:33.850Z,2.50
2022-07-27T03:06:08.824Z,2.30
2022-07-27T03:08:36.141Z,1.05
2022-07-27T03:11:03.035Z,1.30
2022-07-27T03:13:30.323Z,2.08
2022-07-27T03:15:57.547Z,1.55
2022-07-27T03:18:24.414Z,2.05
2022-07-27T03:20:51.260Z,4.15
2022-07-27T03:23:18.374Z,1.40
2022-07-27T03:25:45.351Z,1.40
2022-07-27T03:28:12.096Z,6.03
2022-07-27T03:30:38.862Z,1.30
2022-07-27T03:33:05.595Z,2.70
2022-07-27T03:35:32.886Z,1.25
2022-07-27T03:37:59.617Z,2.25
2022-07-27T03:40:29.223Z,3.40
2022-07-27T03:42:55.860Z,1.85
2022-07-27T03:45:22.601Z,2.55
2022-07-27T03:47:49.262Z,2.80
2022-07-27T03:50:15.972Z,1.73
2022-07-27T03:52:45.572Z,1.65
2022-07-27T03:55:12.850Z,1.63
2022-07-27T03:57:39.716Z,1.02
2022-07-27T04:00:08.542Z,2.20
2022-07-27T04:02:35.359Z,1.10
2022-07-27T04:05:02.100Z,1.95
2022-07-27T04:07:29.837Z,1.15
2022-07-27T04:09:56.717Z,1.17
2022-07-27T04:12:23.849Z,2.15
2022-07-27T04:14:51.335Z,4.07
2022-07-27T04:17:18.117Z,4.28
2022-07-27T04:20:05.776Z,4.40
2022-07-27T04:22:32.514Z,1.48
2022-07-27T04:24:59.267Z,3.22
2022-07-27T04:27:26.198Z,1.60
2022-07-27T04:29:53.341Z,0.98
2022-07-27T04:32:20.073Z,1.50
2022-07-27T04:34:46.940Z,1.15
2022-07-27T04:37:13.794Z,2.55
2022-07-27T04:39:40.635Z,3.60
2022-07-27T04:42:08.254Z,1.92
2022-07-27T04:44:34.960Z,1.98
2022-07-27T04:47:01.759Z,1.25
2022-07-27T04:49:28.455Z,1.70
2022-07-27T04:51:55.228Z,2.20
2022-07-27T04:54:21.923Z,1.20
2022-07-27T04:56:48.647Z,1.60
2022-07-27T04:59:15.627Z,2.30
2022-07-27T05:01:42.534Z,2.72
2022-07-27T05:04:09.420Z,1.58
2022-07-27T05:06:36.205Z,2.47
2022-07-27T05:09:03.419Z,1.70
2022-07-27T05:11:30.124Z,1.33
2022-07-27T05:13:57.055Z,2.20
2022-07-27T05:16:28.355Z,1.55
2022-07-27T05:18:56.044Z,2.22
2022-07-27T05:21:23.063Z,5.03
2022-07-27T05:23:49.813Z,4.72
2022-07-27T05:26:16.481Z,3.78
2022-07-27T05:28:43.637Z,4.13
2022-07-27T05:31:10.283Z,1.30
2022-07-27T05:33:36.967Z,2.33
2022-07-27T05:36:03.816Z,2.90
2022-07-27T05:38:39.250Z,1.95
2022-07-27T05:41:09.482Z,2.42
2022-07-27T05:43:36.815Z,3.28
2022-07-27T05:46:03.718Z,2.83
2022-07-27T05:48:30.661Z,2.78
2022-07-27T05:50:57.397Z,1.40
2022-07-27T05:53:24.065Z,2.03
2022-07-27T05:55:58.939Z,3.30
2022-07-27T05:58:30.167Z,5.10
2022-07-27T06:00:57.671Z,3.42
2022-07-27T06:03:24.679Z,6.80
2022-07-27T06:05:51.593Z,13.75
2022-07-27T06:08:18.405Z,25.45
2022-07-27T06:10:45.097Z,11.82
2022-07-27T06:13:12.051Z,4.18
2022-07-27T06:15:39.775Z,5.50
2022-07-27T06:18:08.984Z,11.75
2022-07-27T06:20:35.745Z,15.10
2022-07-27T06:23:07.822Z,6.70
2022-07-27T06:25:35.499Z,5.65
2022-07-27T06:28:06.328Z,2.63
2022-07-27T06:30:33.488Z,22.02
2022-07-27T06:33:00.968Z,27.80
2022-07-27T06:35:27.828Z,6.85
2022-07-27T06:37:54.804Z,10.13
2022-07-27T06:40:21.868Z,32.92
2022-07-27T06:42:48.907Z,9.55
2022-07-27T06:45:16.447Z,17.25
2022-07-27T06:47:49.223Z,28.13
2022-07-27T06:50:20.807Z,7.18
2022-07-27T06:52:48.538Z,4.60
2022-07-27T06:55:15.358Z,5.47
2022-07-27T06:57:42.909Z,5.68
2022-07-27T07:00:10.565Z,12.45
2022-07-27T07:02:37.523Z,7.53
2022-07-27T07:05:04.684Z,6.82
2022-07-27T07:07:31.695Z,2.97
2022-07-27T07:09:58.414Z,4.22
2022-07-27T07:12:25.676Z,2.83
2022-07-27T07:14:52.512Z,7.63
2022-07-27T07:17:19.746Z,4.10
2022-07-27T07:19:46.646Z,6.60
2022-07-27T07:22:13.482Z,3.33
2022-07-27T07:24:40.278Z,7.15
2022-07-27T07:27:07.044Z,18.25
2022-07-27T07:29:33.739Z,30.95
2022-07-27T07:32:00.473Z,32.45
2022-07-27T07:34:29.178Z,7.82
2022-07-27T07:36:55.933Z,68.75
2022-07-27T07:39:26.632Z,26.17
2022-07-27T07:41:57.641Z,36.83
2022-07-27T07:44:24.437Z,15.68
2022-07-27T07:46:51.364Z,5.95
2022-07-27T07:49:18.636Z,28.27
2022-07-27T07:52:05.061Z,12.40
2022-07-27T07:54:32.035Z,5.75
2022-07-27T07:56:58.837Z,6.18
2022-07-27T07:59:25.519Z,3.60
2022-07-27T08:01:52.308Z,3.85
2022-07-27T08:04:19.307Z,3.55
2022-07-27T08:06:46.124Z,3.72
2022-07-27T08:09:17.662Z,3.13
2022-07-27T08:11:44.879Z,3.28
2022-07-27T08:14:11.624Z,2.60
2022-07-27T08:16:38.861Z,1.95
2022-07-27T08:19:05.824Z,2.90
2022-07-27T08:21:36.239Z,6.80
2022-07-27T08:24:03.156Z,5.00
2022-07-27T08:26:29.896Z,3.72
2022-07-27T08:28:56.590Z,3.50
2022-07-27T08:31:50.979Z,1.95
2022-07-27T08:34:13.433Z,6.25
2022-07-27T08:36:40.403Z,2.38
2022-07-27T08:39:08.963Z,3.05
2022-07-27T08:41:42.076Z,4.18
2022-07-27T08:44:13.674Z,2.30
2022-07-27T08:46:44.447Z,4.35
2022-07-27T08:49:13.048Z,2.75
2022-07-27T08:51:44.015Z,2.70
2022-07-27T08:54:13.979Z,7.07
2022-07-27T08:56:41.037Z,3.72
2022-07-27T08:59:07.940Z,6.40
2022-07-27T09:01:39.069Z,4.50
2022-07-27T09:04:10.684Z,5.22
2022-07-27T09:06:45.909Z,2.85
2022-07-27T09:09:22.037Z,2.25
2022-07-27T09:12:05.457Z,6.25
2022-07-27T09:14:34.732Z,3.25
2022-07-27T09:20:18.464Z,4.68
2022-07-27T09:22:54.451Z,2.95
2022-07-27T09:28:30.229Z,6.50
2022-07-27T09:31:06.516Z,2.92
2022-07-27T09:33:41.629Z,4.35
2022-07-27T09:36:08.625Z,6.93
2022-07-27T09:38:35.344Z,4.85
2022-07-27T09:41:04.947Z,2.88
2022-07-27T09:46:36.467Z,4.68
2022-07-27T09:49:04.884Z,7.35
2022-07-27T09:51:58.973Z,7.72
2022-07-27T09:54:21.055Z,5.50
2022-07-27T09:56:58.647Z,4.78
2022-07-27T09:59:25.369Z,6.60
2022-07-27T10:01:56.216Z,10.82
2022-07-27T10:04:24.379Z,8.05
2022-07-27T10:07:02.676Z,10.02
2022-07-27T10:09:31.999Z,5.00
2022-07-27T10:11:58.776Z,4.45
2022-07-27T10:14:25.716Z,3.28
2022-07-27T10:16:53.578Z,5.65
2022-07-27T10:19:28.119Z,4.88
2022-07-27T10:21:55.134Z,9.05
2022-07-27T10:24:37.229Z,3.10
2022-07-27T10:27:20.788Z,4.05
2022-07-27T10:29:51.943Z,5.40
2022-07-27T10:32:31.199Z,4.30
2022-07-27T10:34:59.025Z,5.28
2022-07-27T10:37:26.945Z,4.13
2022-07-27T10:40:16.322Z,3.75
2022-07-27T10:42:47.828Z,8.20
2022-07-27T10:45:19.321Z,4.53
2022-07-27T10:47:48.977Z,5.22
2022-07-27T10:50:15.618Z,4.13
2022-07-27T10:53:06.628Z,3.78
2022-07-27T10:55:35.112Z,4.20
2022-07-27T10:58:11.025Z,3.33
2022-07-27T11:00:59.142Z,3.47
2022-07-27T11:03:34.529Z,4.78
2022-07-27T11:11:49.874Z,9.40
2022-07-27T11:14:19.320Z,8.23
2022-07-27T11:17:17.207Z,28.27
2022-07-27T11:19:51.326Z,29.02
2022-07-27T11:22:29.999Z,15.52
2022-07-27T11:25:02.654Z,36.88
2022-07-27T11:27:30.631Z,19.73
2022-07-27T11:29:58.082Z,18.20
2022-07-27T11:32:25.101Z,4.97
2022-07-27T11:34:52.012Z,5.40
2022-07-27T11:37:23.046Z,6.60
2022-07-27T11:40:04.018Z,5.45
2022-07-27T11:42:46.540Z,4.07
2022-07-27T11:45:28.459Z,4.40
2022-07-27T11:47:58.784Z,6.05
2022-07-27T11:50:25.496Z,5.75
2022-07-27T11:53:01.552Z,7.65
2022-07-27T11:55:28.700Z,5.25
2022-07-27T11:58:04.262Z,2.65
2022-07-27T12:00:41.722Z,7.90
2022-07-27T12:03:20.045Z,2.38
2022-07-27T12:05:51.257Z,4.85
2022-07-27T12:08:18.966Z,4.07
2022-07-27T12:11:01.090Z,3.63
2022-07-27T12:13:35.308Z,6.75
2022-07-27T12:16:02.470Z,3.33
2022-07-27T12:18:44.642Z,2.50
2022-07-27T12:21:18.802Z,4.45
2022-07-27T12:23:52.989Z,3.10
2022-07-27T12:26:25.282Z,4.10
2022-07-27T12:29:13.149Z,7.53
2022-07-27T12:31:49.076Z,3.05
2022-07-27T12:34:15.857Z,7.45
2022-07-27T12:36:43.164Z,4.95
2022-07-27T12:39:26.900Z,32.40
2022-07-27T12:42:05.855Z,8.25
2022-07-27T12:44:36.441Z,25.40
2022-07-27T12:47:27.759Z,72.20
2022-07-27T12:50:04.549Z,17.30
2022-07-27T12:52:32.462Z,43.60
2022-07-27T12:54:59.323Z,29.23
2022-07-27T12:57:53.475Z,13.45
2022-07-27T13:00:17.388Z,25.08
2022-07-27T13:02:45.610Z,8.82
2022-07-27T13:05:14.286Z,4.32
2022-07-27T13:07:43.910Z,7.40
2022-07-27T13:10:11.838Z,11.48
2022-07-27T13:12:39.292Z,9.77
2022-07-27T13:15:08.602Z,4.45
2022-07-27T13:17:36.129Z,5.43
2022-07-27T13:20:05.159Z,3.65
2022-07-27T13:22:32.777Z,5.65
2022-07-27T13:24:59.571Z,4.32
2022-07-27T13:27:26.362Z,4.00
2022-07-27T13:29:53.053Z,7.78
2022-07-27T13:32:20.034Z,5.45
2022-07-27T13:34:48.796Z,4.03
2022-07-27T13:37:16.327Z,3.40
2022-07-27T13:39:43.180Z,2.53
2022-07-27T13:42:10.136Z,2.83
2022-07-27T13:45:02.238Z,3.38
2022-07-27T13:47:24.012Z,8.15
2022-07-27T13:49:50.708Z,3.95
2022-07-27T13:52:17.435Z,4.93
2022-07-27T13:54:44.207Z,4.65
2022-07-27T13:57:14.091Z,6.70
2022-07-27T13:59:41.462Z,4.95
2022-07-27T14:02:10.458Z,6.10
2022-07-27T14:04:38.653Z,2.55
2022-07-27T14:07:07.840Z,4.13
2022-07-27T14:09:54.987Z,2.95
2022-07-27T14:12:21.870Z,4.28
2022-07-27T14:14:48.708Z,3.83
2022-07-27T14:17:15.464Z,3.10
2022-07-27T14:19:42.116Z,5.22
2022-07-27T14:22:12.001Z,3.97
2022-07-27T14:24:39.510Z,4.28
2022-07-27T14:27:06.914Z,6.78
2022-07-27T14:29:34.006Z,2.90
2022-07-27T14:32:01.459Z,4.50
2022-07-27T14:34:28.515Z,3.08
2022-07-27T14:36:55.394Z,4.78
2022-07-27T14:39:22.208Z,7.90
2022-07-27T14:41:48.886Z,1.55
2022-07-27T14:44:18.799Z,3.53
2022-07-27T14:46:46.588Z,3.55
2022-07-27T14:49:14.945Z,3.05
2022-07-27T14:51:41.747Z,1.83
2022-07-27T14:54:08.712Z,5.38
2022-07-27T14:56:36.462Z,5.25
2022-07-27T14:59:04.487Z,4.00
2022-07-27T15:01:31.787Z,3.13
2022-07-27T15:03:58.763Z,2.42
2022-07-27T15:06:25.618Z,3.45
2022-07-27T15:08:52.362Z,3.60
2022-07-27T15:11:19.444Z,10.68
2022-07-27T15:13:46.209Z,4.63
2022-07-27T15:16:13.257Z,7.10
2022-07-27T15:18:40.116Z,5.75
2022-07-27T15:21:12.982Z,3.08
2022-07-27T15:23:44.364Z,5.63
2022-07-27T15:26:12.893Z,2.45
2022-07-27T15:28:41.514Z,1.33
2022-07-27T15:31:08.570Z,3.58
2022-07-27T15:33:36.008Z,1.67
2022-07-27T15:36:03.237Z,4.35
2022-07-27T15:38:29.950Z,2.70
2022-07-27T15:40:56.567Z,3.47
2022-07-27T15:43:23.302Z,2.22
2022-07-27T15:45:50.995Z,3.38
2022-07-27T15:48:19.702Z,2.22
2022-07-27T15:50:51.475Z,3.95
2022-07-27T15:53:20.750Z,13.45
2022-07-27T15:55:48.503Z,10.38
2022-07-27T15:58:17.970Z,21.33
2022-07-27T16:00:50.920Z,14.05
2022-07-27T16:03:18.407Z,38.53
2022-07-27T16:05:49.346Z,16.83
2022-07-27T16:08:18.186Z,32.80
2022-07-27T16:10:47.169Z,21.45
2022-07-27T16:13:14.165Z,18.40
2022-07-27T16:16:01.104Z,27.92
2022-07-27T16:18:28.320Z,22.30
2022-07-27T16:20:55.415Z,29.00
2022-07-27T16:23:22.962Z,6.20
2022-07-27T16:26:06.874Z,3.90
2022-07-27T16:28:38.708Z,6.65
2022-07-27T16:31:07.907Z,4.40
2022-07-27T16:33:35.191Z,3.95
2022-07-27T16:36:02.324Z,3.13
2022-07-27T16:38:29.787Z,2.50
2022-07-27T16:40:56.514Z,2.70
2022-07-27T16:43:23.307Z,1.90
2022-07-27T16:46:03.173Z,4.53
2022-07-27T16:48:42.849Z,2.50
2022-07-27T16:51:12.585Z,3.53
2022-07-27T16:53:42.459Z,5.32
2022-07-27T16:56:10.764Z,4.00
2022-07-27T16:58:40.002Z,4.95
2022-07-27T17:01:07.769Z,3.53
2022-07-27T17:03:34.538Z,4.72
2022-07-27T17:06:06.059Z,3.15
2022-07-27T17:08:36.183Z,4.88
2022-07-27T17:11:06.214Z,4.70
2022-07-27T17:13:34.659Z,6.97
2022-07-27T17:16:04.099Z,3.28
2022-07-27T17:18:37.112Z,5.15
2022-07-27T17:21:09.235Z,7.85
2022-07-27T17:23:38.314Z,3.13
2022-07-27T17:26:07.263Z,4.68
2022-07-27T17:28:38.794Z,3.25
2022-07-27T17:31:08.126Z,6.72
2022-07-27T17:33:35.484Z,8.85
2022-07-27T17:36:04.730Z,3.13
2022-07-27T17:38:31.533Z,5.53
2022-07-27T17:40:58.472Z,6.95
2022-07-27T17:43:25.195Z,3.30
2022-07-27T17:45:52.005Z,3.90
2022-07-27T17:48:18.818Z,14.98
2022-07-27T17:50:45.535Z,29.00
2022-07-27T17:53:12.226Z,8.30
2022-07-27T17:55:39.901Z,24.30
2022-07-27T17:58:06.642Z,23.20
2022-07-27T18:00:33.524Z,6.05
2022-07-27T18:03:00.789Z,28.10
2022-07-27T18:05:27.735Z,21.27
2022-07-27T18:07:54.968Z,24.95
2022-07-27T18:10:21.791Z,21.77
2022-07-27T18:12:48.654Z,15.95
2022-07-27T18:15:35.473Z,25.25
2022-07-27T18:18:02.453Z,6.32
2022-07-27T18:20:29.175Z,7.47
2022-07-27T18:22:56.001Z,5.57
2022-07-27T18:25:22.884Z,5.97
2022-07-27T18:27:51.616Z,11.85
2022-07-27T18:30:18.866Z,25.60
2022-07-27T18:32:45.696Z,24.55
2022-07-27T18:35:12.890Z,11.38
2022-07-27T18:37:40.017Z,19.50
2022-07-27T18:40:09.008Z,22.63
2022-07-27T18:42:38.284Z,10.13
2022-07-27T18:45:09.882Z,12.40
2022-07-27T18:47:49.413Z,18.83
2022-07-27T18:50:16.688Z,15.10
2022-07-27T18:52:43.493Z,56.72
2022-07-27T18:55:10.596Z,10.45
2022-07-27T18:57:38.018Z,62.63
2022-07-27T19:00:05.891Z,36.25
2022-07-27T19:02:38.785Z,22.73
2022-07-27T19:05:07.671Z,27.90
2022-07-27T19:07:37.232Z,17.45
2022-07-27T19:10:07.618Z,10.93
2022-07-27T19:12:34.647Z,7.75
2022-07-27T19:15:01.659Z,19.25
2022-07-27T19:17:30.343Z,7.72
2022-07-27T19:20:01.463Z,5.90
2022-07-27T19:22:30.044Z,5.25
2022-07-27T19:24:56.854Z,15.25
2022-07-27T19:27:23.984Z,26.15
2022-07-27T19:29:52.887Z,17.50
2022-07-27T19:32:19.720Z,13.02
2022-07-27T19:34:47.638Z,11.32
2022-07-27T19:37:15.321Z,8.70
2022-07-27T19:40:02.287Z,19.88
2022-07-27T19:42:30.582Z,6.35
2022-07-27T19:44:57.401Z,11.48
2022-07-27T19:47:25.511Z,17.40
2022-07-27T19:49:52.400Z,10.27
2022-07-27T19:52:20.914Z,15.77
2022-07-27T19:54:47.612Z,8.48
2022-07-27T19:57:14.699Z,19.17
2022-07-27T19:59:55.448Z,44.30
2022-07-27T20:02:24.986Z,27.17
2022-07-27T20:04:52.432Z,9.05
2022-07-27T20:07:19.346Z,26.48
2022-07-27T20:09:46.354Z,37.72
2022-07-27T20:12:13.090Z,9.00
2022-07-27T20:14:39.852Z,8.23
2022-07-27T20:17:07.026Z,5.03
2022-07-27T20:19:33.821Z,5.85
2022-07-27T20:22:01.975Z,4.97
2022-07-27T20:24:29.367Z,7.40
2022-07-27T20:26:57.423Z,2.80
2022-07-27T20:29:24.549Z,10.20
2022-07-27T20:31:52.159Z,6.53
2022-07-27T20:34:23.506Z,5.82
2022-07-27T20:36:50.397Z,3.20
2022-07-27T20:39:17.846Z,2.70
2022-07-27T20:41:44.808Z,5.20
2022-07-27T20:44:11.495Z,3.08
2022-07-27T20:46:38.642Z,2.40
2022-07-27T20:49:06.503Z,37.50
2022-07-27T20:51:33.446Z,26.65
2022-07-27T20:54:00.849Z,14.60
2022-07-27T20:56:27.597Z,11.35
2022-07-27T20:58:54.758Z,9.85
2022-07-27T21:01:26.081Z,23.45
2022-07-27T21:03:52.800Z,5.97
2022-07-27T21:06:19.634Z,13.70
2022-07-27T21:08:46.970Z,7.57
2022-07-27T21:11:14.103Z,7.50
2022-07-27T21:13:41.372Z,10.77
2022-07-27T21:16:08.431Z,18.80
2022-07-27T21:18:35.668Z,16.33
2022-07-27T21:21:02.731Z,15.13
2022-07-27T21:23:48.261Z,9.07
2022-07-27T21:26:15.578Z,5.53
2022-07-27T21:28:45.706Z,5.43
2022-07-27T21:31:12.394Z,3.50
2022-07-27T21:33:40.263Z,4.88
2022-07-27T21:36:07.726Z,4.40
2022-07-27T21:38:34.612Z,4.93
2022-07-27T21:41:01.491Z,2.92
2022-07-27T21:43:28.159Z,1.77
2022-07-27T21:45:54.941Z,2.35
2022-07-27T21:48:21.651Z,5.72
2022-07-27T21:50:48.512Z,34.70
2022-07-27T21:53:15.195Z,42.95
2022-07-27T21:55:42.054Z,31.17
2022-07-27T21:58:12.142Z,26.08
2022-07-27T22:00:39.131Z,15.23
2022-07-27T22:03:06.381Z,9.75
2022-07-27T22:05:33.380Z,6.68
2022-07-27T22:08:00.255Z,3.55
2022-07-27T22:10:28.369Z,3.65
2022-07-27T22:12:55.369Z,3.33
2022-07-27T22:15:22.105Z,2.20
2022-07-27T22:17:51.024Z,2.05
2022-07-27T22:20:19.028Z,3.45
2022-07-27T22:22:46.249Z,2.47
2022-07-27T22:25:13.175Z,4.47
2022-07-27T22:27:39.982Z,1.88
2022-07-27T22:30:08.177Z,2.80
2022-07-27T22:32:35.627Z,4.35
2022-07-27T22:35:02.824Z,4.05
2022-07-27T22:37:30.548Z,3.38
2022-07-27T22:39:57.183Z,3.53
2022-07-27T22:42:23.842Z,2.65
2022-07-27T22:44:50.631Z,2.40
2022-07-27T22:47:17.499Z,4.30
2022-07-27T22:49:45.121Z,2.33
2022-07-27T22:52:12.273Z,5.63
2022-07-27T22:54:39.050Z,3.35
2022-07-27T22:57:06.985Z,4.68
2022-07-27T22:59:34.933Z,3.47
2022-07-27T23:02:02.290Z,4.32
2022-07-27T23:04:29.030Z,4.50
2022-07-27T23:06:56.171Z,4.00
2022-07-27T23:09:23.283Z,2.70
2022-07-27T23:11:50.566Z,1.77
2022-07-27T23:14:17.742Z,3.88
2022-07-27T23:16:44.944Z,7.40
2022-07-27T23:19:11.998Z,3.65
2022-07-27T23:21:39.632Z,3.50
2022-07-27T23:24:14.255Z,3.47
2022-07-27T23:26:41.955Z,3.33
2022-07-27T23:29:08.895Z,12.70
2022-07-27T23:31:35.726Z,8.95
2022-07-27T23:34:02.478Z,31.40
2022-07-27T23:36:29.264Z,31.10
2022-07-27T23:38:56.037Z,35.13
2022-07-27T23:41:22.663Z,51.90
2022-07-27T23:43:49.396Z,74.22
2022-07-27T23:46:16.169Z,34.72
2022-07-27T23:48:42.992Z,41.05
2022-07-27T23:51:16.141Z,48.90
2022-07-27T23:53:42.844Z,38.65
2022-07-27T23:56:09.496Z,25.27
2022-07-27T23:58:36.177Z,13.15
